sensor_id;sensor_type;location;lat;lon;timestamp;P1;durP1;ratioP1;P2;durP2;ratioP2
71456;SDS011;59263;48.160;11.752;2022-09-09T00:04:43;3.17;;;0.95;;
71456;SDS011;59263;48.160;11.752;2022-09-09T00:10:16;3.08;;;1.00;;
71456;SDS011;59263;48.160;11.752;2022-09-09T00:15:51;2.95;;;0.82;;
71456;SDS011;59263;48.160;11.752;2022-09-09T00:18:26;4.05;;;1.10;;
71456;SDS011;59263;48.160;11.752;2022-09-09T00:20:58;4.13;;;1.00;;
71456;SDS011;59263;48.160;11.752;2022-09-09T00:23:28;3.40;;;1.05;;
71456;SDS011;59263;48.160;11.752;2022-09-09T00:26:02;4.22;;;1.00;;
71456;SDS011;59263;48.160;11.752;2022-09-09T00:28:36;3.97;;;1.10;;
71456;SDS011;59263;48.160;11.752;2022-09-09T00:31:11;4.63;;;1.38;;
71456;SDS011;59263;48.160;11.752;2022-09-09T00:33:43;3.45;;;1.00;;
71456;SDS011;59263;48.160;11.752;2022-09-09T00:36:16;3.80;;;1.03;;
71456;SDS011;59263;48.160;11.752;2022-09-09T00:38:47;3.95;;;1.02;;
71456;SDS011;59263;48.160;11.752;2022-09-09T00:44:00;4.27;;;1.23;;
71456;SDS011;59263;48.160;11.752;2022-09-09T00:46:45;4.57;;;1.20;;
71456;SDS011;59263;48.160;11.752;2022-09-09T00:49:33;4.10;;;1.20;;
71456;SDS011;59263;48.160;11.752;2022-09-09T00:57:32;3.67;;;1.10;;
71456;SDS011;59263;48.160;11.752;2022-09-09T01:11:07;5.20;;;1.23;;
71456;SDS011;59263;48.160;11.752;2022-09-09T01:13:40;3.65;;;1.10;;
71456;SDS011;59263;48.160;11.752;2022-09-09T01:16:10;4.07;;;1.10;;
71456;SDS011;59263;48.160;11.752;2022-09-09T01:18:44;2.88;;;0.90;;
71456;SDS011;59263;48.160;11.752;2022-09-09T01:21:17;4.03;;;1.30;;
71456;SDS011;59263;48.160;11.752;2022-09-09T01:26:56;4.68;;;1.10;;
71456;SDS011;59263;48.160;11.752;2022-09-09T01:29:26;5.00;;;1.27;;
71456;SDS011;59263;48.160;11.752;2022-09-09T01:31:55;3.67;;;1.07;;
71456;SDS011;59263;48.160;11.752;2022-09-09T01:34:46;4.18;;;1.30;;
71456;SDS011;59263;48.160;11.752;2022-09-09T01:37:12;4.70;;;1.20;;
71456;SDS011;59263;48.160;11.752;2022-09-09T01:39:38;4.70;;;1.05;;
71456;SDS011;59263;48.160;11.752;2022-09-09T01:42:07;5.32;;;1.15;;
71456;SDS011;59263;48.160;11.752;2022-09-09T01:44:36;3.85;;;1.00;;
71456;SDS011;59263;48.160;11.752;2022-09-09T01:47:03;5.43;;;1.05;;
71456;SDS011;59263;48.160;11.752;2022-09-09T01:49:28;2.17;;;0.80;;
71456;SDS011;59263;48.160;11.752;2022-09-09T01:51:55;4.40;;;1.20;;
71456;SDS011;59263;48.160;11.752;2022-09-09T01:54:21;2.65;;;1.00;;
71456;SDS011;59263;48.160;11.752;2022-09-09T02:02:08;3.92;;;1.00;;
71456;SDS011;59263;48.160;11.752;2022-09-09T02:07:06;2.70;;;0.88;;
71456;SDS011;59263;48.160;11.752;2022-09-09T02:09:39;3.80;;;1.10;;
71456;SDS011;59263;48.160;11.752;2022-09-09T02:12:08;3.85;;;0.90;;
71456;SDS011;59263;48.160;11.752;2022-09-09T02:14:40;3.83;;;1.00;;
71456;SDS011;59263;48.160;11.752;2022-09-09T02:17:10;2.17;;;0.80;;
71456;SDS011;59263;48.160;11.752;2022-09-09T02:19:39;4.55;;;1.02;;
71456;SDS011;59263;48.160;11.752;2022-09-09T02:22:10;5.05;;;1.10;;
71456;SDS011;59263;48.160;11.752;2022-09-09T02:24:36;3.77;;;0.90;;
71456;SDS011;59263;48.160;11.752;2022-09-09T02:27:05;5.20;;;1.15;;
71456;SDS011;59263;48.160;11.752;2022-09-09T02:29:38;3.20;;;0.95;;
71456;SDS011;59263;48.160;11.752;2022-09-09T02:32:11;3.72;;;1.10;;
71456;SDS011;59263;48.160;11.752;2022-09-09T02:34:42;3.50;;;0.88;;
71456;SDS011;59263;48.160;11.752;2022-09-09T02:37:10;2.90;;;0.93;;
71456;SDS011;59263;48.160;11.752;2022-09-09T02:39:36;4.47;;;1.10;;
71456;SDS011;59263;48.160;11.752;2022-09-09T02:42:03;2.77;;;0.80;;
71456;SDS011;59263;48.160;11.752;2022-09-09T02:44:29;4.72;;;0.98;;
71456;SDS011;59263;48.160;11.752;2022-09-09T02:47:07;5.53;;;1.00;;
71456;SDS011;59263;48.160;11.752;2022-09-09T02:52:42;2.92;;;0.98;;
71456;SDS011;59263;48.160;11.752;2022-09-09T02:57:51;2.40;;;0.80;;
71456;SDS011;59263;48.160;11.752;2022-09-09T03:00:23;4.20;;;1.08;;
71456;SDS011;59263;48.160;11.752;2022-09-09T03:02:49;2.75;;;0.90;;
71456;SDS011;59263;48.160;11.752;2022-09-09T03:05:16;3.92;;;1.05;;
71456;SDS011;59263;48.160;11.752;2022-09-09T03:07:41;2.90;;;0.87;;
71456;SDS011;59263;48.160;11.752;2022-09-09T03:10:07;3.80;;;1.00;;
71456;SDS011;59263;48.160;11.752;2022-09-09T03:12:33;3.33;;;1.08;;
71456;SDS011;59263;48.160;11.752;2022-09-09T03:14:58;5.70;;;0.90;;
71456;SDS011;59263;48.160;11.752;2022-09-09T03:17:23;2.58;;;0.80;;
71456;SDS011;59263;48.160;11.752;2022-09-09T03:19:49;2.75;;;0.90;;
71456;SDS011;59263;48.160;11.752;2022-09-09T03:22:17;5.40;;;1.00;;
71456;SDS011;59263;48.160;11.752;2022-09-09T03:24:42;3.20;;;0.87;;
71456;SDS011;59263;48.160;11.752;2022-09-09T03:27:07;3.90;;;1.00;;
71456;SDS011;59263;48.160;11.752;2022-09-09T03:29:33;3.30;;;0.87;;
71456;SDS011;59263;48.160;11.752;2022-09-09T03:31:59;3.45;;;0.70;;
71456;SDS011;59263;48.160;11.752;2022-09-09T03:34:24;2.90;;;0.83;;
71456;SDS011;59263;48.160;11.752;2022-09-09T03:36:49;2.07;;;0.70;;
71456;SDS011;59263;48.160;11.752;2022-09-09T03:39:15;4.50;;;1.00;;
71456;SDS011;59263;48.160;11.752;2022-09-09T03:41:40;3.57;;;0.90;;
71456;SDS011;59263;48.160;11.752;2022-09-09T03:44:06;2.93;;;0.73;;
71456;SDS011;59263;48.160;11.752;2022-09-09T03:46:31;3.03;;;0.97;;
71456;SDS011;59263;48.160;11.752;2022-09-09T03:48:56;2.53;;;0.80;;
71456;SDS011;59263;48.160;11.752;2022-09-09T03:51:22;2.23;;;0.70;;
71456;SDS011;59263;48.160;11.752;2022-09-09T03:53:47;3.80;;;1.10;;
71456;SDS011;59263;48.160;11.752;2022-09-09T03:56:13;2.97;;;0.80;;
71456;SDS011;59263;48.160;11.752;2022-09-09T03:58:39;3.17;;;0.90;;
71456;SDS011;59263;48.160;11.752;2022-09-09T04:01:11;2.58;;;0.80;;
71456;SDS011;59263;48.160;11.752;2022-09-09T04:03:38;3.57;;;1.00;;
71456;SDS011;59263;48.160;11.752;2022-09-09T04:06:04;4.25;;;0.80;;
71456;SDS011;59263;48.160;11.752;2022-09-09T04:08:31;5.05;;;0.98;;
71456;SDS011;59263;48.160;11.752;2022-09-09T04:10:57;3.43;;;0.93;;
71456;SDS011;59263;48.160;11.752;2022-09-09T04:13:24;3.60;;;0.90;;
71456;SDS011;59263;48.160;11.752;2022-09-09T04:15:53;5.88;;;1.27;;
71456;SDS011;59263;48.160;11.752;2022-09-09T04:18:20;2.47;;;0.83;;
71456;SDS011;59263;48.160;11.752;2022-09-09T04:20:47;5.00;;;0.98;;
71456;SDS011;59263;48.160;11.752;2022-09-09T04:23:13;2.50;;;0.90;;
71456;SDS011;59263;48.160;11.752;2022-09-09T04:25:43;3.25;;;1.02;;
71456;SDS011;59263;48.160;11.752;2022-09-09T04:28:09;2.50;;;0.80;;
71456;SDS011;59263;48.160;11.752;2022-09-09T04:30:35;2.23;;;0.83;;
71456;SDS011;59263;48.160;11.752;2022-09-09T04:33:00;5.38;;;1.10;;
71456;SDS011;59263;48.160;11.752;2022-09-09T04:35:26;3.55;;;0.88;;
71456;SDS011;59263;48.160;11.752;2022-09-09T04:37:52;3.57;;;1.00;;
71456;SDS011;59263;48.160;11.752;2022-09-09T04:40:17;2.93;;;0.83;;
71456;SDS011;59263;48.160;11.752;2022-09-09T04:42:42;3.88;;;1.10;;
71456;SDS011;59263;48.160;11.752;2022-09-09T04:45:09;3.03;;;1.00;;
71456;SDS011;59263;48.160;11.752;2022-09-09T04:47:36;3.88;;;1.10;;
71456;SDS011;59263;48.160;11.752;2022-09-09T04:50:01;4.55;;;1.20;;
71456;SDS011;59263;48.160;11.752;2022-09-09T04:52:26;3.88;;;1.15;;
71456;SDS011;59263;48.160;11.752;2022-09-09T04:54:52;3.80;;;1.00;;
71456;SDS011;59263;48.160;11.752;2022-09-09T04:57:19;2.67;;;0.88;;
71456;SDS011;59263;48.160;11.752;2022-09-09T04:59:44;4.27;;;1.00;;
71456;SDS011;59263;48.160;11.752;2022-09-09T05:02:10;2.85;;;0.88;;
71456;SDS011;59263;48.160;11.752;2022-09-09T05:04:36;2.60;;;0.87;;
71456;SDS011;59263;48.160;11.752;2022-09-09T05:07:01;5.97;;;1.10;;
71456;SDS011;59263;48.160;11.752;2022-09-09T05:09:27;3.90;;;1.20;;
71456;SDS011;59263;48.160;11.752;2022-09-09T05:11:52;3.47;;;0.90;;
71456;SDS011;59263;48.160;11.752;2022-09-09T05:14:18;3.57;;;0.87;;
71456;SDS011;59263;48.160;11.752;2022-09-09T05:16:46;3.23;;;0.90;;
71456;SDS011;59263;48.160;11.752;2022-09-09T05:19:12;4.18;;;1.00;;
71456;SDS011;59263;48.160;11.752;2022-09-09T05:21:37;6.07;;;1.40;;
71456;SDS011;59263;48.160;11.752;2022-09-09T05:24:03;3.60;;;1.00;;
71456;SDS011;59263;48.160;11.752;2022-09-09T05:26:28;3.58;;;1.00;;
71456;SDS011;59263;48.160;11.752;2022-09-09T05:28:54;5.85;;;0.90;;
71456;SDS011;59263;48.160;11.752;2022-09-09T05:31:20;3.75;;;0.90;;
71456;SDS011;59263;48.160;11.752;2022-09-09T05:33:46;3.42;;;0.93;;
71456;SDS011;59263;48.160;11.752;2022-09-09T05:36:15;2.65;;;0.80;;
71456;SDS011;59263;48.160;11.752;2022-09-09T05:38:45;3.70;;;0.90;;
71456;SDS011;59263;48.160;11.752;2022-09-09T05:41:12;4.22;;;0.90;;
71456;SDS011;59263;48.160;11.752;2022-09-09T05:43:38;4.32;;;0.80;;
71456;SDS011;59263;48.160;11.752;2022-09-09T05:46:05;3.67;;;0.90;;
71456;SDS011;59263;48.160;11.752;2022-09-09T05:48:35;3.50;;;1.00;;
71456;SDS011;59263;48.160;11.752;2022-09-09T05:51:06;3.33;;;0.80;;
71456;SDS011;59263;48.160;11.752;2022-09-09T05:53:33;2.42;;;0.70;;
71456;SDS011;59263;48.160;11.752;2022-09-09T05:56:06;3.10;;;0.90;;
71456;SDS011;59263;48.160;11.752;2022-09-09T05:58:35;3.15;;;0.85;;
71456;SDS011;59263;48.160;11.752;2022-09-09T06:03:35;2.70;;;0.70;;
71456;SDS011;59263;48.160;11.752;2022-09-09T06:06:02;3.47;;;0.88;;
71456;SDS011;59263;48.160;11.752;2022-09-09T06:08:30;2.90;;;0.80;;
71456;SDS011;59263;48.160;11.752;2022-09-09T06:11:06;3.25;;;0.80;;
71456;SDS011;59263;48.160;11.752;2022-09-09T06:13:34;3.88;;;1.10;;
71456;SDS011;59263;48.160;11.752;2022-09-09T06:16:00;2.73;;;0.70;;
71456;SDS011;59263;48.160;11.752;2022-09-09T06:18:26;4.10;;;0.90;;
71456;SDS011;59263;48.160;11.752;2022-09-09T06:20:58;2.97;;;0.70;;
71456;SDS011;59263;48.160;11.752;2022-09-09T06:23:31;4.05;;;1.00;;
71456;SDS011;59263;48.160;11.752;2022-09-09T06:26:01;3.28;;;0.90;;
71456;SDS011;59263;48.160;11.752;2022-09-09T06:28:34;3.50;;;1.00;;
71456;SDS011;59263;48.160;11.752;2022-09-09T06:31:00;3.33;;;0.98;;
71456;SDS011;59263;48.160;11.752;2022-09-09T06:33:30;3.60;;;0.87;;
71456;SDS011;59263;48.160;11.752;2022-09-09T06:35:56;4.63;;;0.80;;
71456;SDS011;59263;48.160;11.752;2022-09-09T06:38:22;5.70;;;0.93;;
71456;SDS011;59263;48.160;11.752;2022-09-09T06:40:51;3.83;;;0.85;;
71456;SDS011;59263;48.160;11.752;2022-09-09T06:43:24;5.00;;;1.00;;
71456;SDS011;59263;48.160;11.752;2022-09-09T06:45:58;3.07;;;0.90;;
71456;SDS011;59263;48.160;11.752;2022-09-09T06:48:24;3.20;;;0.88;;
71456;SDS011;59263;48.160;11.752;2022-09-09T06:53:33;4.07;;;1.02;;
71456;SDS011;59263;48.160;11.752;2022-09-09T06:56:01;4.03;;;1.00;;
71456;SDS011;59263;48.160;11.752;2022-09-09T06:58:35;4.27;;;0.97;;
71456;SDS011;59263;48.160;11.752;2022-09-09T07:01:13;3.83;;;0.70;;
71456;SDS011;59263;48.160;11.752;2022-09-09T07:03:40;5.10;;;1.10;;
71456;SDS011;59263;48.160;11.752;2022-09-09T07:06:13;4.10;;;1.00;;
71456;SDS011;59263;48.160;11.752;2022-09-09T07:08:40;4.80;;;1.20;;
71456;SDS011;59263;48.160;11.752;2022-09-09T07:11:07;2.83;;;0.80;;
71456;SDS011;59263;48.160;11.752;2022-09-09T07:13:33;4.68;;;1.00;;
71456;SDS011;59263;48.160;11.752;2022-09-09T07:16:07;3.78;;;0.90;;
71456;SDS011;59263;48.160;11.752;2022-09-09T07:18:34;4.57;;;0.80;;
71456;SDS011;59263;48.160;11.752;2022-09-09T07:21:00;6.40;;;1.00;;
71456;SDS011;59263;48.160;11.752;2022-09-09T07:23:27;3.85;;;0.90;;
71456;SDS011;59263;48.160;11.752;2022-09-09T07:25:52;4.13;;;1.00;;
71456;SDS011;59263;48.160;11.752;2022-09-09T07:28:18;3.72;;;0.93;;
71456;SDS011;59263;48.160;11.752;2022-09-09T07:30:52;4.77;;;0.90;;
71456;SDS011;59263;48.160;11.752;2022-09-09T07:33:21;4.63;;;0.82;;
71456;SDS011;59263;48.160;11.752;2022-09-09T07:35:47;3.75;;;0.88;;
71456;SDS011;59263;48.160;11.752;2022-09-09T07:38:13;3.67;;;0.80;;
71456;SDS011;59263;48.160;11.752;2022-09-09T07:40:39;2.97;;;0.77;;
71456;SDS011;59263;48.160;11.752;2022-09-09T07:43:05;3.97;;;0.80;;
71456;SDS011;59263;48.160;11.752;2022-09-09T07:45:30;2.40;;;0.60;;
71456;SDS011;59263;48.160;11.752;2022-09-09T07:47:58;3.95;;;1.00;;
71456;SDS011;59263;48.160;11.752;2022-09-09T07:50:23;3.33;;;0.80;;
71456;SDS011;59263;48.160;11.752;2022-09-09T07:52:50;2.70;;;0.70;;
71456;SDS011;59263;48.160;11.752;2022-09-09T07:55:16;4.00;;;1.10;;
71456;SDS011;59263;48.160;11.752;2022-09-09T07:57:41;3.97;;;1.23;;
71456;SDS011;59263;48.160;11.752;2022-09-09T08:00:06;2.57;;;0.80;;
71456;SDS011;59263;48.160;11.752;2022-09-09T08:02:32;3.50;;;0.88;;
71456;SDS011;59263;48.160;11.752;2022-09-09T08:04:58;4.50;;;1.13;;
71456;SDS011;59263;48.160;11.752;2022-09-09T08:07:23;3.57;;;0.90;;
71456;SDS011;59263;48.160;11.752;2022-09-09T08:09:49;3.38;;;0.88;;
71456;SDS011;59263;48.160;11.752;2022-09-09T08:12:14;4.03;;;0.90;;
71456;SDS011;59263;48.160;11.752;2022-09-09T08:14:40;3.67;;;1.00;;
71456;SDS011;59263;48.160;11.752;2022-09-09T08:17:05;3.03;;;0.90;;
71456;SDS011;59263;48.160;11.752;2022-09-09T08:19:31;4.38;;;1.00;;
71456;SDS011;59263;48.160;11.752;2022-09-09T08:21:59;3.03;;;0.85;;
71456;SDS011;59263;48.160;11.752;2022-09-09T08:24:26;4.18;;;1.10;;
71456;SDS011;59263;48.160;11.752;2022-09-09T08:26:52;5.20;;;1.30;;
71456;SDS011;59263;48.160;11.752;2022-09-09T08:29:18;3.00;;;0.90;;
71456;SDS011;59263;48.160;11.752;2022-09-09T08:31:45;4.78;;;1.00;;
71456;SDS011;59263;48.160;11.752;2022-09-09T08:34:16;4.30;;;1.00;;
71456;SDS011;59263;48.160;11.752;2022-09-09T08:36:45;2.50;;;0.80;;
71456;SDS011;59263;48.160;11.752;2022-09-09T08:39:13;3.45;;;1.13;;
71456;SDS011;59263;48.160;11.752;2022-09-09T08:41:56;2.08;;;0.70;;
71456;SDS011;59263;48.160;11.752;2022-09-09T08:44:38;7.68;;;0.82;;
71456;SDS011;59263;48.160;11.752;2022-09-09T08:52:39;3.03;;;0.70;;
71456;SDS011;59263;48.160;11.752;2022-09-09T08:57:51;2.20;;;0.75;;
71456;SDS011;59263;48.160;11.752;2022-09-09T09:00:19;2.30;;;0.60;;
71456;SDS011;59263;48.160;11.752;2022-09-09T09:02:52;2.40;;;0.63;;
71456;SDS011;59263;48.160;11.752;2022-09-09T09:11:03;2.78;;;0.77;;
71456;SDS011;59263;48.160;11.752;2022-09-09T09:13:42;2.10;;;0.68;;
71456;SDS011;59263;48.160;11.752;2022-09-09T09:16:23;2.67;;;0.77;;
71456;SDS011;59263;48.160;11.752;2022-09-09T09:18:57;2.67;;;0.70;;
71456;SDS011;59263;48.160;11.752;2022-09-09T09:21:40;2.72;;;0.70;;
71456;SDS011;59263;48.160;11.752;2022-09-09T09:24:23;2.13;;;0.60;;
71456;SDS011;59263;48.160;11.752;2022-09-09T09:27:11;3.08;;;0.80;;
71456;SDS011;59263;48.160;11.752;2022-09-09T09:29:38;4.77;;;0.93;;
71456;SDS011;59263;48.160;11.752;2022-09-09T09:32:05;3.15;;;0.90;;
71456;SDS011;59263;48.160;11.752;2022-09-09T09:34:37;3.65;;;0.80;;
71456;SDS011;59263;48.160;11.752;2022-09-09T09:37:02;5.93;;;0.90;;
71456;SDS011;59263;48.160;11.752;2022-09-09T09:39:42;2.85;;;0.90;;
71456;SDS011;59263;48.160;11.752;2022-09-09T09:42:09;4.33;;;0.80;;
71456;SDS011;59263;48.160;11.752;2022-09-09T09:44:38;2.55;;;0.70;;
71456;SDS011;59263;48.160;11.752;2022-09-09T09:47:08;3.73;;;0.97;;
71456;SDS011;59263;48.160;11.752;2022-09-09T09:49:37;3.25;;;0.85;;
71456;SDS011;59263;48.160;11.752;2022-09-09T09:52:03;4.65;;;1.02;;
71456;SDS011;59263;48.160;11.752;2022-09-09T09:54:33;2.90;;;0.80;;
71456;SDS011;59263;48.160;11.752;2022-09-09T09:57:10;3.65;;;0.90;;
71456;SDS011;59263;48.160;11.752;2022-09-09T09:59:37;4.05;;;0.80;;
71456;SDS011;59263;48.160;11.752;2022-09-09T10:02:21;3.15;;;0.68;;
71456;SDS011;59263;48.160;11.752;2022-09-09T10:05:05;3.53;;;0.90;;
71456;SDS011;59263;48.160;11.752;2022-09-09T10:07:37;4.35;;;0.82;;
71456;SDS011;59263;48.160;11.752;2022-09-09T10:10:03;4.53;;;0.88;;
71456;SDS011;59263;48.160;11.752;2022-09-09T10:15:29;3.88;;;0.80;;
71456;SDS011;59263;48.160;11.752;2022-09-09T10:21:09;3.10;;;0.82;;
71456;SDS011;59263;48.160;11.752;2022-09-09T10:32:46;2.05;;;0.63;;
71456;SDS011;59263;48.160;11.752;2022-09-09T10:35:33;2.58;;;0.90;;
71456;SDS011;59263;48.160;11.752;2022-09-09T10:38:20;2.65;;;0.65;;
71456;SDS011;59263;48.160;11.752;2022-09-09T10:55:14;2.83;;;0.70;;
71456;SDS011;59263;48.160;11.752;2022-09-09T10:57:45;2.83;;;0.88;;
71456;SDS011;59263;48.160;11.752;2022-09-09T11:00:22;4.00;;;1.00;;
71456;SDS011;59263;48.160;11.752;2022-09-09T11:03:01;3.17;;;0.80;;
71456;SDS011;59263;48.160;11.752;2022-09-09T11:08:01;3.03;;;0.80;;
71456;SDS011;59263;48.160;11.752;2022-09-09T11:10:36;3.28;;;0.95;;
71456;SDS011;59263;48.160;11.752;2022-09-09T11:16:04;2.15;;;0.55;;
71456;SDS011;59263;48.160;11.752;2022-09-09T11:18:41;2.47;;;0.52;;
71456;SDS011;59263;48.160;11.752;2022-09-09T11:21:13;2.55;;;0.70;;
71456;SDS011;59263;48.160;11.752;2022-09-09T11:23:49;2.38;;;0.60;;
71456;SDS011;59263;48.160;11.752;2022-09-09T11:26:25;3.80;;;0.73;;
71456;SDS011;59263;48.160;11.752;2022-09-09T11:37:21;2.40;;;0.50;;
71456;SDS011;59263;48.160;11.752;2022-09-09T11:42:38;1.60;;;0.50;;
71456;SDS011;59263;48.160;11.752;2022-09-09T11:45:37;3.27;;;0.80;;
71456;SDS011;59263;48.160;11.752;2022-09-09T11:47:57;3.00;;;0.57;;
71456;SDS011;59263;48.160;11.752;2022-09-09T11:52:49;0.80;;;0.40;;
71456;SDS011;59263;48.160;11.752;2022-09-09T11:55:26;1.65;;;0.50;;
71456;SDS011;59263;48.160;11.752;2022-09-09T11:58:00;1.92;;;0.60;;
71456;SDS011;59263;48.160;11.752;2022-09-09T12:00:37;3.83;;;0.63;;
71456;SDS011;59263;48.160;11.752;2022-09-09T12:03:08;2.53;;;0.50;;
71456;SDS011;59263;48.160;11.752;2022-09-09T12:06:11;3.80;;;0.50;;
71456;SDS011;59263;48.160;11.752;2022-09-09T12:08:51;2.50;;;0.50;;
71456;SDS011;59263;48.160;11.752;2022-09-09T12:11:24;1.63;;;0.40;;
71456;SDS011;59263;48.160;11.752;2022-09-09T12:13:56;2.20;;;0.50;;
71456;SDS011;59263;48.160;11.752;2022-09-09T12:16:33;2.00;;;0.47;;
71456;SDS011;59263;48.160;11.752;2022-09-09T12:19:06;1.80;;;0.52;;
71456;SDS011;59263;48.160;11.752;2022-09-09T12:21:36;2.05;;;0.50;;
71456;SDS011;59263;48.160;11.752;2022-09-09T12:24:51;2.00;;;0.50;;
71456;SDS011;59263;48.160;11.752;2022-09-09T12:27:02;1.50;;;0.50;;
71456;SDS011;59263;48.160;11.752;2022-09-09T12:29:44;0.77;;;0.40;;
71456;SDS011;59263;48.160;11.752;2022-09-09T12:32:23;1.88;;;0.65;;
71456;SDS011;59263;48.160;11.752;2022-09-09T12:34:54;4.78;;;0.68;;
71456;SDS011;59263;48.160;11.752;2022-09-09T12:37:32;1.70;;;0.50;;
71456;SDS011;59263;48.160;11.752;2022-09-09T12:40:01;1.65;;;0.50;;
71456;SDS011;59263;48.160;11.752;2022-09-09T12:42:29;1.50;;;0.50;;
71456;SDS011;59263;48.160;11.752;2022-09-09T12:44:59;1.90;;;0.50;;
71456;SDS011;59263;48.160;11.752;2022-09-09T12:47:37;3.03;;;0.77;;
71456;SDS011;59263;48.160;11.752;2022-09-09T12:50:03;3.30;;;0.60;;
71456;SDS011;59263;48.160;11.752;2022-09-09T12:52:30;2.70;;;0.50;;
71456;SDS011;59263;48.160;11.752;2022-09-09T12:54:58;2.15;;;0.50;;
71456;SDS011;59263;48.160;11.752;2022-09-09T12:57:29;1.55;;;0.50;;
71456;SDS011;59263;48.160;11.752;2022-09-09T13:00:07;3.17;;;0.80;;
71456;SDS011;59263;48.160;11.752;2022-09-09T13:02:49;1.20;;;0.40;;
71456;SDS011;59263;48.160;11.752;2022-09-09T13:05:16;3.07;;;0.60;;
71456;SDS011;59263;48.160;11.752;2022-09-09T13:07:46;1.48;;;0.50;;
71456;SDS011;59263;48.160;11.752;2022-09-09T13:10:12;1.77;;;0.60;;
71456;SDS011;59263;48.160;11.752;2022-09-09T13:12:40;2.50;;;0.60;;
71456;SDS011;59263;48.160;11.752;2022-09-09T13:15:19;2.13;;;0.60;;
71456;SDS011;59263;48.160;11.752;2022-09-09T13:17:54;2.50;;;0.80;;
71456;SDS011;59263;48.160;11.752;2022-09-09T13:20:22;1.75;;;0.65;;
71456;SDS011;59263;48.160;11.752;2022-09-09T13:22:50;1.55;;;0.50;;
71456;SDS011;59263;48.160;11.752;2022-09-09T13:25:35;2.53;;;0.50;;
71456;SDS011;59263;48.160;11.752;2022-09-09T13:28:04;2.72;;;0.50;;
71456;SDS011;59263;48.160;11.752;2022-09-09T13:30:34;1.40;;;0.50;;
71456;SDS011;59263;48.160;11.752;2022-09-09T13:35:45;1.48;;;0.65;;
71456;SDS011;59263;48.160;11.752;2022-09-09T13:38:15;2.57;;;0.60;;
71456;SDS011;59263;48.160;11.752;2022-09-09T13:40:51;1.58;;;0.50;;
71456;SDS011;59263;48.160;11.752;2022-09-09T13:43:21;2.38;;;0.40;;
71456;SDS011;59263;48.160;11.752;2022-09-09T13:45:58;1.85;;;0.45;;
71456;SDS011;59263;48.160;11.752;2022-09-09T13:48:26;2.38;;;0.57;;
71456;SDS011;59263;48.160;11.752;2022-09-09T13:51:35;1.63;;;0.60;;
71456;SDS011;59263;48.160;11.752;2022-09-09T13:53:53;3.75;;;0.50;;
71456;SDS011;59263;48.160;11.752;2022-09-09T13:56:18;1.67;;;0.60;;
71456;SDS011;59263;48.160;11.752;2022-09-09T13:58:43;1.63;;;0.60;;
71456;SDS011;59263;48.160;11.752;2022-09-09T14:01:08;1.80;;;0.50;;
71456;SDS011;59263;48.160;11.752;2022-09-09T14:03:35;2.00;;;0.60;;
71456;SDS011;59263;48.160;11.752;2022-09-09T14:06:00;2.50;;;0.70;;
71456;SDS011;59263;48.160;11.752;2022-09-09T14:08:26;2.10;;;0.40;;
71456;SDS011;59263;48.160;11.752;2022-09-09T14:10:53;2.55;;;0.70;;
71456;SDS011;59263;48.160;11.752;2022-09-09T14:13:20;1.80;;;0.45;;
71456;SDS011;59263;48.160;11.752;2022-09-09T14:15:47;3.20;;;0.60;;
71456;SDS011;59263;48.160;11.752;2022-09-09T14:18:13;3.40;;;0.50;;
71456;SDS011;59263;48.160;11.752;2022-09-09T14:20:38;2.80;;;0.60;;
71456;SDS011;59263;48.160;11.752;2022-09-09T14:23:04;3.10;;;0.60;;
71456;SDS011;59263;48.160;11.752;2022-09-09T14:25:29;2.28;;;0.50;;
71456;SDS011;59263;48.160;11.752;2022-09-09T14:27:56;1.70;;;0.55;;
71456;SDS011;59263;48.160;11.752;2022-09-09T14:30:21;1.40;;;0.60;;
71456;SDS011;59263;48.160;11.752;2022-09-09T14:32:46;2.05;;;0.50;;
71456;SDS011;59263;48.160;11.752;2022-09-09T14:35:12;1.83;;;0.50;;
71456;SDS011;59263;48.160;11.752;2022-09-09T14:37:37;1.40;;;0.60;;
71456;SDS011;59263;48.160;11.752;2022-09-09T14:40:04;2.53;;;0.70;;
71456;SDS011;59263;48.160;11.752;2022-09-09T14:42:30;3.03;;;0.40;;
71456;SDS011;59263;48.160;11.752;2022-09-09T14:44:55;1.90;;;0.60;;
71456;SDS011;59263;48.160;11.752;2022-09-09T14:47:20;3.93;;;0.60;;
71456;SDS011;59263;48.160;11.752;2022-09-09T14:49:46;2.63;;;0.70;;
71456;SDS011;59263;48.160;11.752;2022-09-09T14:52:14;1.85;;;0.60;;
71456;SDS011;59263;48.160;11.752;2022-09-09T14:54:39;3.27;;;0.70;;
71456;SDS011;59263;48.160;11.752;2022-09-09T14:57:05;1.70;;;0.60;;
71456;SDS011;59263;48.160;11.752;2022-09-09T14:59:30;2.03;;;0.60;;
71456;SDS011;59263;48.160;11.752;2022-09-09T15:01:55;1.47;;;0.60;;
71456;SDS011;59263;48.160;11.752;2022-09-09T15:04:20;1.90;;;0.80;;
71456;SDS011;59263;48.160;11.752;2022-09-09T15:06:46;1.92;;;0.70;;
71456;SDS011;59263;48.160;11.752;2022-09-09T15:09:13;1.35;;;0.50;;
71456;SDS011;59263;48.160;11.752;2022-09-09T15:11:39;2.90;;;0.68;;
71456;SDS011;59263;48.160;11.752;2022-09-09T15:14:05;1.53;;;0.50;;
71456;SDS011;59263;48.160;11.752;2022-09-09T15:16:32;1.83;;;0.60;;
71456;SDS011;59263;48.160;11.752;2022-09-09T15:18:59;2.03;;;0.70;;
71456;SDS011;59263;48.160;11.752;2022-09-09T15:21:27;2.60;;;0.70;;
71456;SDS011;59263;48.160;11.752;2022-09-09T15:23:54;2.47;;;0.68;;
71456;SDS011;59263;48.160;11.752;2022-09-09T15:26:20;1.95;;;0.57;;
71456;SDS011;59263;48.160;11.752;2022-09-09T15:28:46;1.37;;;0.47;;
71456;SDS011;59263;48.160;11.752;2022-09-09T15:31:28;3.28;;;0.65;;
71456;SDS011;59263;48.160;11.752;2022-09-09T15:34:02;2.65;;;0.68;;
71456;SDS011;59263;48.160;11.752;2022-09-09T15:36:32;2.35;;;0.60;;
71456;SDS011;59263;48.160;11.752;2022-09-09T15:39:01;1.80;;;0.60;;
71456;SDS011;59263;48.160;11.752;2022-09-09T15:41:28;1.35;;;0.57;;
71456;SDS011;59263;48.160;11.752;2022-09-09T15:43:55;4.43;;;0.60;;
71456;SDS011;59263;48.160;11.752;2022-09-09T15:46:32;3.28;;;0.80;;
71456;SDS011;59263;48.160;11.752;2022-09-09T15:49:10;3.63;;;0.70;;
71456;SDS011;59263;48.160;11.752;2022-09-09T15:51:37;1.63;;;0.60;;
71456;SDS011;59263;48.160;11.752;2022-09-09T15:54:03;2.78;;;0.63;;
71456;SDS011;59263;48.160;11.752;2022-09-09T15:56:29;4.00;;;0.70;;
71456;SDS011;59263;48.160;11.752;2022-09-09T15:58:56;2.28;;;0.77;;
71456;SDS011;59263;48.160;11.752;2022-09-09T16:01:22;2.50;;;0.55;;
71456;SDS011;59263;48.160;11.752;2022-09-09T16:03:48;2.38;;;0.60;;
71456;SDS011;59263;48.160;11.752;2022-09-09T16:06:16;2.60;;;0.70;;
71456;SDS011;59263;48.160;11.752;2022-09-09T16:08:44;1.83;;;0.60;;
71456;SDS011;59263;48.160;11.752;2022-09-09T16:11:15;2.25;;;0.55;;
71456;SDS011;59263;48.160;11.752;2022-09-09T16:13:44;3.95;;;0.88;;
71456;SDS011;59263;48.160;11.752;2022-09-09T16:16:11;1.30;;;0.60;;
71456;SDS011;59263;48.160;11.752;2022-09-09T16:18:42;2.65;;;0.70;;
71456;SDS011;59263;48.160;11.752;2022-09-09T16:21:13;1.95;;;0.52;;
71456;SDS011;59263;48.160;11.752;2022-09-09T16:23:40;2.65;;;0.77;;
71456;SDS011;59263;48.160;11.752;2022-09-09T16:26:06;3.33;;;0.80;;
71456;SDS011;59263;48.160;11.752;2022-09-09T16:28:31;1.53;;;0.57;;
71456;SDS011;59263;48.160;11.752;2022-09-09T16:30:56;3.47;;;0.60;;
71456;SDS011;59263;48.160;11.752;2022-09-09T16:33:23;1.90;;;0.60;;
71456;SDS011;59263;48.160;11.752;2022-09-09T16:35:51;2.67;;;0.70;;
71456;SDS011;59263;48.160;11.752;2022-09-09T16:38:16;1.80;;;0.60;;
71456;SDS011;59263;48.160;11.752;2022-09-09T16:40:41;1.73;;;0.50;;
71456;SDS011;59263;48.160;11.752;2022-09-09T16:43:07;1.97;;;0.50;;